createdAt,value
2018-10-09T00:00:09.917Z,83.39
2018-10-09T00:02:45.839Z,83.93
2018-10-09T00:05:21.568Z,84.23
2018-10-09T00:07:57.336Z,83.95
2018-10-09T00:10:33.256Z,83.55
2018-10-09T00:13:09.106Z,81.98
2018-10-09T00:15:45.041Z,81.03
2018-10-09T00:18:21.107Z,81.66
2018-10-09T00:20:57.060Z,81.64
2018-10-09T00:23:32.853Z,82.93
2018-10-09T00:26:08.687Z,84.37
2018-10-09T00:28:44.755Z,83.94
2018-10-09T00:31:20.441Z,84.91
2018-10-09T00:33:56.506Z,85.30
2018-10-09T00:36:32.360Z,84.91
2018-10-09T00:39:09.945Z,86.29
2018-10-09T00:41:45.938Z,86.43
2018-10-09T00:44:22.045Z,86.68
2018-10-09T00:46:57.908Z,86.91
2018-10-09T00:49:33.928Z,87.53
2018-10-09T00:52:09.876Z,87.41
2018-10-09T00:54:45.697Z,85.59
2018-10-09T00:57:21.539Z,85.25
2018-10-09T00:59:57.223Z,85.50
2018-10-09T01:02:33.051Z,83.66
2018-10-09T01:05:09.015Z,83.12
2018-10-09T01:07:44.720Z,83.44
2018-10-09T01:10:20.474Z,83.12
2018-10-09T01:12:56.258Z,83.61
2018-10-09T01:15:33.116Z,83.42
2018-10-09T01:18:09.011Z,83.59
2018-10-09T01:20:45.101Z,81.79
2018-10-09T01:23:20.996Z,81.44
2018-10-09T01:25:56.896Z,80.82
2018-10-09T01:28:32.722Z,81.10
2018-10-09T01:31:08.613Z,80.61
2018-10-09T01:33:44.464Z,82.05
2018-10-09T01:36:20.431Z,81.60
2018-10-09T01:38:56.355Z,81.94
2018-10-09T01:41:32.159Z,82.46
2018-10-09T01:44:08.032Z,83.58
2018-10-09T01:46:43.952Z,85.46
2018-10-09T01:49:19.897Z,86.65
2018-10-09T01:51:55.792Z,86.95
2018-10-09T01:54:31.599Z,85.06
2018-10-09T01:57:07.551Z,85.22
2018-10-09T01:59:43.172Z,83.61
2018-10-09T02:02:19.075Z,82.60
2018-10-09T02:04:54.977Z,81.62
2018-10-09T02:07:30.925Z,80.73
2018-10-09T02:10:06.751Z,79.92
2018-10-09T02:12:42.663Z,79.72
2018-10-09T02:15:18.346Z,79.83
2018-10-09T02:17:54.152Z,80.72
2018-10-09T02:20:30.120Z,81.59
2018-10-09T02:23:06.183Z,83.64
2018-10-09T02:25:41.928Z,85.77
2018-10-09T02:28:18.536Z,85.78
2018-10-09T02:30:54.414Z,84.53
2018-10-09T02:33:30.412Z,81.50
2018-10-09T02:36:06.582Z,83.22
2018-10-09T02:38:42.534Z,83.55
2018-10-09T02:41:18.362Z,83.88
2018-10-09T02:43:57.008Z,82.58
2018-10-09T02:46:32.957Z,82.96
2018-10-09T02:49:08.777Z,84.79
2018-10-09T02:51:44.647Z,87.46
2018-10-09T02:54:20.622Z,87.60
2018-10-09T02:56:56.356Z,89.03
2018-10-09T02:59:32.305Z,89.21
2018-10-09T03:02:08.037Z,88.72
2018-10-09T03:04:44.485Z,87.20
2018-10-09T03:07:20.257Z,85.24
2018-10-09T03:09:56.257Z,84.90
2018-10-09T03:12:31.997Z,84.94
2018-10-09T03:15:08.250Z,87.15
2018-10-09T03:17:44.085Z,89.15
2018-10-09T03:20:20.002Z,89.46
2018-10-09T03:22:55.741Z,89.25
2018-10-09T03:25:31.778Z,89.39
2018-10-09T03:28:08.022Z,88.88
2018-10-09T03:30:43.914Z,88.51
2018-10-09T03:33:19.672Z,89.03
2018-10-09T03:35:55.578Z,89.03
2018-10-09T03:38:31.442Z,89.34
2018-10-09T03:41:07.769Z,88.04
2018-10-09T03:43:44.096Z,86.50
2018-10-09T03:46:19.893Z,84.30
2018-10-09T03:48:56.415Z,82.40
2018-10-09T03:51:32.341Z,84.33
2018-10-09T03:54:08.413Z,85.86
2018-10-09T03:56:44.295Z,85.64
2018-10-09T03:59:20.073Z,86.35
2018-10-09T04:01:56.017Z,86.22
2018-10-09T04:04:31.859Z,85.24
2018-10-09T04:07:07.922Z,85.68
2018-10-09T04:09:43.873Z,84.30
2018-10-09T04:12:19.783Z,84.19
2018-10-09T04:14:55.740Z,87.74
2018-10-09T04:17:31.614Z,89.83
2018-10-09T04:20:07.764Z,91.45
2018-10-09T04:22:43.680Z,87.63
2018-10-09T04:25:19.533Z,87.13
2018-10-09T04:27:55.598Z,86.14
2018-10-09T04:30:31.448Z,87.23
2018-10-09T04:33:07.394Z,86.52
2018-10-09T04:35:43.285Z,85.39
2018-10-09T04:38:19.233Z,87.17
2018-10-09T04:40:55.069Z,87.94
2018-10-09T04:43:30.890Z,88.39
2018-10-09T04:46:06.849Z,87.55
2018-10-09T04:48:42.549Z,85.27
2018-10-09T04:51:18.415Z,86.32
2018-10-09T04:53:57.557Z,86.62
2018-10-09T04:56:33.364Z,86.68
2018-10-09T04:59:09.351Z,86.77
2018-10-09T05:01:45.182Z,87.36
2018-10-09T05:04:21.154Z,86.60
2018-10-09T05:06:56.968Z,87.84
2018-10-09T05:09:32.828Z,88.33
2018-10-09T05:12:08.720Z,87.85
2018-10-09T05:14:44.738Z,86.14
2018-10-09T05:17:20.655Z,87.41
2018-10-09T05:19:56.420Z,86.31
2018-10-09T05:22:32.100Z,83.55
2018-10-09T05:25:08.450Z,82.49
2018-10-09T05:27:44.210Z,82.89
2018-10-09T05:30:20.156Z,83.37
2018-10-09T05:32:56.078Z,82.40
2018-10-09T05:35:31.962Z,82.88
2018-10-09T05:38:08.371Z,82.52
2018-10-09T05:40:44.361Z,82.27
2018-10-09T05:43:20.112Z,82.13
2018-10-09T05:45:56.114Z,81.88
2018-10-09T05:48:26.897Z,81.21
2018-10-09T05:50:57.736Z,81.22
2018-10-09T05:53:28.530Z,79.09
2018-10-09T05:55:59.324Z,77.68
2018-10-09T05:58:30.132Z,77.75
2018-10-09T06:01:01.501Z,78.35
2018-10-09T06:03:32.348Z,77.15
2018-10-09T06:06:08.347Z,76.56
2018-10-09T06:08:44.141Z,75.01
2018-10-09T06:11:14.988Z,73.53
2018-10-09T06:13:45.765Z,73.60
2018-10-09T06:16:21.987Z,74.93
2018-10-09T06:18:58.140Z,74.28
2018-10-09T06:21:34.101Z,73.66
2018-10-09T06:24:09.852Z,72.29
2018-10-09T06:26:45.760Z,70.98
2018-10-09T06:29:21.628Z,70.34
2018-10-09T06:31:58.044Z,68.50
2018-10-09T06:34:33.886Z,67.62
2018-10-09T06:37:09.800Z,67.22
2018-10-09T06:39:45.675Z,68.58
2018-10-09T06:42:21.571Z,68.32
2018-10-09T06:44:57.484Z,69.86
2018-10-09T06:47:33.415Z,70.91
2018-10-09T06:50:09.708Z,70.37
2018-10-09T06:52:45.713Z,68.55
2018-10-09T06:55:21.488Z,67.86
2018-10-09T06:57:57.159Z,66.06
2018-10-09T07:00:32.908Z,65.93
2018-10-09T07:03:08.892Z,64.64
2018-10-09T07:05:44.793Z,63.34
2018-10-09T07:08:20.713Z,63.70
2018-10-09T07:10:57.135Z,63.24
2018-10-09T07:13:33.069Z,62.26
2018-10-09T07:16:08.773Z,60.66
2018-10-09T07:18:39.621Z,61.07
2018-10-09T07:21:10.511Z,61.20
2018-10-09T07:23:41.314Z,60.52
2018-10-09T07:26:12.149Z,59.84
2018-10-09T07:28:43.033Z,59.52
2018-10-09T07:31:13.884Z,59.33
2018-10-09T07:33:44.924Z,58.12
2018-10-09T07:36:15.775Z,58.05
2018-10-09T07:38:47.286Z,57.69
2018-10-09T07:41:18.119Z,58.64
2018-10-09T07:43:49.038Z,58.05
2018-10-09T07:46:19.891Z,57.82
2018-10-09T07:48:50.887Z,56.79
2018-10-09T07:51:21.885Z,56.59
2018-10-09T07:53:52.800Z,56.10
2018-10-09T07:56:24.150Z,56.18
2018-10-09T07:58:56.140Z,55.46
2018-10-09T08:01:26.996Z,55.72
2018-10-09T08:03:58.181Z,54.94
2018-10-09T08:06:29.068Z,55.00
2018-10-09T08:08:59.972Z,54.18
2018-10-09T08:11:32.572Z,54.55
2018-10-09T08:14:03.487Z,53.67
2018-10-09T08:16:46.264Z,52.78
2018-10-09T08:19:18.032Z,52.88
2018-10-09T08:21:48.915Z,51.00
2018-10-09T08:24:19.816Z,50.48
2018-10-09T08:26:50.718Z,50.28
2018-10-09T08:29:21.612Z,50.14
2018-10-09T08:31:52.452Z,49.91
2018-10-09T08:34:24.769Z,47.20
2018-10-09T08:36:55.811Z,44.88
2018-10-09T08:39:26.719Z,43.67
2018-10-09T08:41:57.585Z,44.32
2018-10-09T08:44:28.494Z,45.20
2018-10-09T08:46:59.330Z,37.60
2018-10-09T08:49:30.284Z,38.93
2018-10-09T08:52:01.196Z,33.30
2018-10-09T08:54:32.311Z,34.63
2018-10-09T08:57:03.156Z,33.88
2018-10-09T08:59:34.030Z,34.69
2018-10-09T09:02:04.885Z,31.40
2018-10-09T09:04:35.817Z,32.69
2018-10-09T09:07:06.719Z,32.51
2018-10-09T09:09:37.656Z,32.98
2018-10-09T09:12:08.690Z,32.23
2018-10-09T09:14:45.446Z,31.44
2018-10-09T09:17:16.334Z,31.49
2018-10-09T09:26:46.338Z,32.76
2018-10-09T09:29:17.425Z,32.19
2018-10-09T09:31:48.316Z,29.23
2018-10-09T09:34:19.588Z,29.71
2018-10-09T09:36:50.892Z,28.01
2018-10-09T09:39:21.780Z,27.50
2018-10-09T09:41:52.666Z,26.24
2018-10-09T09:44:23.515Z,27.54
2018-10-09T09:46:54.407Z,26.20
2018-10-09T09:49:25.244Z,24.89
2018-10-09T09:51:56.210Z,22.75
2018-10-09T09:54:27.298Z,25.21
2018-10-09T09:56:58.179Z,24.19
2018-10-09T09:59:29.179Z,24.03
2018-10-09T10:02:00.046Z,24.13
2018-10-09T10:04:30.872Z,23.78
2018-10-09T10:07:01.872Z,20.66
2018-10-09T10:09:32.719Z,20.16
2018-10-09T10:12:03.590Z,21.32
2018-10-09T10:14:34.579Z,20.13
2018-10-09T10:17:05.483Z,19.24
2018-10-09T10:19:36.310Z,18.64
2018-10-09T10:22:07.194Z,18.75
2018-10-09T10:24:38.244Z,18.19
2018-10-09T10:27:09.115Z,16.48
2018-10-09T10:29:39.943Z,16.07
2018-10-09T10:32:10.832Z,16.50
2018-10-09T10:34:47.546Z,16.21
2018-10-09T10:37:18.475Z,15.90
2018-10-09T10:39:49.322Z,16.28
2018-10-09T10:42:20.188Z,17.11
2018-10-09T10:44:51.424Z,16.97
2018-10-09T10:47:22.308Z,14.93
2018-10-09T10:49:53.135Z,15.85
2018-10-09T10:52:24.142Z,15.95
2018-10-09T10:54:54.959Z,15.94
2018-10-09T10:57:26.227Z,16.28
2018-10-09T10:59:57.044Z,16.58
2018-10-09T11:02:27.908Z,15.37
2018-10-09T11:04:59.008Z,15.88
2018-10-09T11:07:29.912Z,15.22
2018-10-09T11:10:01.047Z,15.71
2018-10-09T11:12:31.943Z,16.94
2018-10-09T11:15:02.857Z,14.96
2018-10-09T11:17:33.759Z,15.81
2018-10-09T11:20:04.766Z,15.92
2018-10-09T11:22:35.665Z,16.77
2018-10-09T11:25:06.554Z,16.56
2018-10-09T11:27:37.450Z,16.50
2018-10-09T11:30:08.934Z,17.07
2018-10-09T11:32:39.954Z,15.22
2018-10-09T11:35:10.943Z,16.20
2018-10-09T11:37:41.867Z,16.16
2018-10-09T11:40:12.951Z,16.33
2018-10-09T11:42:43.870Z,16.01
2018-10-09T11:45:15.337Z,16.06
2018-10-09T11:47:46.229Z,17.05
2018-10-09T11:50:17.504Z,17.21
2018-10-09T11:52:48.366Z,16.10
2018-10-09T11:55:19.194Z,16.47
2018-10-09T11:57:50.028Z,16.53
2018-10-09T12:00:21.033Z,16.72
2018-10-09T12:02:53.069Z,17.47
2018-10-09T12:05:24.096Z,16.52
2018-10-09T12:07:54.996Z,16.76
2018-10-09T12:10:25.849Z,16.47
2018-10-09T12:12:56.728Z,15.56
2018-10-09T12:15:27.605Z,16.96
2018-10-09T12:17:58.536Z,17.39
2018-10-09T12:22:36.179Z,16.00
2018-10-09T12:25:07.131Z,16.62
2018-10-09T12:27:38.106Z,16.10
2018-10-09T12:30:09.448Z,17.24
2018-10-09T12:32:40.273Z,16.90
2018-10-09T12:35:11.568Z,15.16
2018-10-09T12:37:42.379Z,16.67
2018-10-09T12:40:13.299Z,14.44
2018-10-09T12:42:44.170Z,14.64
2018-10-09T12:45:15.068Z,15.20
2018-10-09T12:47:45.936Z,15.11
2018-10-09T12:52:46.139Z,14.70
2018-10-09T12:55:17.206Z,14.85
2018-10-09T12:57:48.479Z,15.48
2018-10-09T13:00:19.308Z,15.03
2018-10-09T13:02:50.389Z,14.48
2018-10-09T13:05:21.229Z,14.23
2018-10-09T13:07:52.126Z,12.59
2018-10-09T13:10:22.947Z,13.44
2018-10-09T13:12:53.797Z,12.88
2018-10-09T13:15:24.662Z,12.63
2018-10-09T13:17:55.559Z,11.91
2018-10-09T13:20:26.390Z,11.80
2018-10-09T13:22:57.378Z,12.29
2018-10-09T13:25:28.491Z,11.69
2018-10-09T13:27:59.377Z,11.13
2018-10-09T13:30:30.217Z,11.15
2018-10-09T13:33:01.078Z,11.71
2018-10-09T13:35:32.315Z,11.90
2018-10-09T13:38:03.322Z,12.06
2018-10-09T13:40:34.346Z,11.12
2018-10-09T13:43:05.237Z,11.08
2018-10-09T13:45:36.056Z,11.66
2018-10-09T13:48:06.968Z,10.84
2018-10-09T13:50:37.835Z,11.81
2018-10-09T13:53:08.953Z,10.98
2018-10-09T13:55:39.813Z,10.68
2018-10-09T13:58:10.683Z,11.18
2018-10-09T14:00:41.528Z,11.00
2018-10-09T14:03:12.589Z,10.54
2018-10-09T14:05:43.441Z,10.46
2018-10-09T14:08:14.291Z,9.42
2018-10-09T14:10:45.110Z,10.84
2018-10-09T14:13:21.511Z,10.58
2018-10-09T14:15:52.373Z,11.33
2018-10-09T14:18:23.260Z,9.77
2018-10-09T14:20:54.108Z,9.26
2018-10-09T14:23:30.098Z,9.65
2018-10-09T14:26:00.917Z,10.76
2018-10-09T14:28:31.802Z,11.41
2018-10-09T14:31:02.661Z,12.63
2018-10-09T14:33:33.532Z,12.12
2018-10-09T14:36:04.394Z,12.92
2018-10-09T14:38:35.326Z,11.96
2018-10-09T14:41:06.537Z,12.35
2018-10-09T14:43:37.430Z,11.20
2018-10-09T14:46:08.804Z,11.27
2018-10-09T14:48:39.986Z,10.95
2018-10-09T14:51:11.616Z,10.82
2018-10-09T14:53:42.489Z,12.37
2018-10-09T14:56:13.344Z,12.82
2018-10-09T14:58:44.216Z,11.78
2018-10-09T15:01:15.069Z,12.17
2018-10-09T15:03:46.076Z,13.23
2018-10-09T15:06:16.916Z,15.59
2018-10-09T15:08:47.825Z,17.16
2018-10-09T15:11:18.647Z,18.60
2018-10-09T15:13:50.277Z,18.58
2018-10-09T15:16:22.026Z,19.19
2018-10-09T15:18:52.889Z,19.25
2018-10-09T15:21:23.720Z,21.66
2018-10-09T15:23:54.575Z,21.06
2018-10-09T15:26:25.446Z,20.77
2018-10-09T15:28:56.427Z,21.89
2018-10-09T15:31:27.456Z,22.77
2018-10-09T15:33:58.372Z,23.22
2018-10-09T15:36:29.241Z,23.22
2018-10-09T15:39:00.176Z,24.46
2018-10-09T15:41:31.058Z,24.81
2018-10-09T15:44:02.187Z,24.95
2018-10-09T15:46:33.030Z,25.58
2018-10-09T15:49:04.001Z,24.98
2018-10-09T15:51:34.837Z,26.04
2018-10-09T16:01:08.265Z,29.26
2018-10-09T16:03:39.133Z,28.69
2018-10-09T16:06:15.852Z,29.60
2018-10-09T16:08:46.700Z,30.07
2018-10-09T16:11:17.601Z,30.58
2018-10-09T16:13:48.451Z,30.59
2018-10-09T16:16:19.360Z,30.58
2018-10-09T16:18:50.230Z,31.78
2018-10-09T16:21:21.156Z,32.13
2018-10-09T16:23:51.993Z,32.11
2018-10-09T16:26:26.274Z,30.77
2018-10-09T16:28:57.155Z,31.63
2018-10-09T16:31:28.080Z,32.54
2018-10-09T16:33:58.988Z,32.59
2018-10-09T16:36:29.915Z,32.63
2018-10-09T16:39:00.794Z,32.47
2018-10-09T16:41:31.715Z,32.49
2018-10-09T16:44:02.612Z,32.88
2018-10-09T16:46:33.502Z,34.47
2018-10-09T16:49:04.509Z,34.28
2018-10-09T16:51:35.444Z,35.10
2018-10-09T16:54:06.346Z,35.65
2018-10-09T16:56:37.285Z,37.70
2018-10-09T16:59:08.222Z,36.96
2018-10-09T17:01:39.375Z,37.65
2018-10-09T17:04:10.254Z,39.16
2018-10-09T17:06:41.353Z,38.74
2018-10-09T17:09:12.876Z,37.74
2018-10-09T17:11:43.788Z,37.20
2018-10-09T17:14:14.686Z,36.40
2018-10-09T17:16:45.810Z,35.32
2018-10-09T17:19:16.647Z,33.96
2018-10-09T17:21:47.568Z,36.56
2018-10-09T17:24:18.441Z,35.30
2018-10-09T17:26:49.403Z,36.30
2018-10-09T17:29:20.592Z,36.34
2018-10-09T17:31:51.973Z,37.07
2018-10-09T17:34:23.345Z,36.43
2018-10-09T17:36:54.252Z,37.86
2018-10-09T17:39:25.123Z,39.37
2018-10-09T17:41:56.030Z,41.56
2018-10-09T17:44:26.899Z,45.79
2018-10-09T17:46:57.964Z,42.18
2018-10-09T17:49:28.996Z,45.01
2018-10-09T17:51:59.912Z,46.58
2018-10-09T17:54:32.096Z,44.99
2018-10-09T17:57:03.073Z,49.09
2018-10-09T17:59:33.959Z,42.02
2018-10-09T18:02:05.118Z,42.65
2018-10-09T18:04:35.965Z,44.16
2018-10-09T18:07:07.794Z,43.78
2018-10-09T18:09:38.719Z,43.78
2018-10-09T18:12:09.682Z,44.56
2018-10-09T18:14:40.628Z,45.29
2018-10-09T18:17:12.606Z,47.76
2018-10-09T18:19:43.482Z,45.10
2018-10-09T18:22:14.381Z,45.69
2018-10-09T18:24:45.312Z,46.35
2018-10-09T18:27:16.689Z,47.09
2018-10-09T18:29:47.513Z,47.46
2018-10-09T18:32:21.015Z,46.55
2018-10-09T18:34:51.877Z,47.23
2018-10-09T18:37:22.799Z,51.08
2018-10-09T18:39:53.671Z,47.26
2018-10-09T18:42:25.461Z,49.04
2018-10-09T18:44:56.566Z,50.00
2018-10-09T18:47:32.560Z,49.86
2018-10-09T18:50:03.615Z,50.24
2018-10-09T18:52:34.525Z,50.23
2018-10-09T18:55:05.955Z,50.38
2018-10-09T18:57:37.070Z,50.28
2018-10-09T19:00:08.894Z,51.22
2018-10-09T19:02:40.545Z,50.25
2018-10-09T19:05:11.793Z,50.68
2018-10-09T19:07:43.149Z,50.83
2018-10-09T19:10:14.042Z,51.81
2018-10-09T19:12:45.523Z,51.68
2018-10-09T19:15:16.412Z,52.05
2018-10-09T19:17:47.781Z,53.78
2018-10-09T19:20:18.932Z,53.62
2018-10-09T19:22:50.378Z,51.44
2018-10-09T19:25:21.342Z,50.79
2018-10-09T19:27:52.281Z,51.90
2018-10-09T19:30:23.221Z,51.76
2018-10-09T19:32:54.575Z,52.08
2018-10-09T19:35:25.481Z,51.03
2018-10-09T19:37:56.454Z,52.92
2018-10-09T19:40:27.335Z,54.44
2018-10-09T19:42:59.065Z,54.72
2018-10-09T19:45:30.477Z,54.95
2018-10-09T19:48:02.268Z,56.95
2018-10-09T19:50:35.136Z,55.69
2018-10-09T19:53:07.093Z,54.22
2018-10-09T19:55:38.096Z,55.73
2018-10-09T19:58:09.017Z,55.06
2018-10-09T20:00:45.317Z,53.99
2018-10-09T20:03:21.365Z,53.34
2018-10-09T20:05:57.359Z,53.08
2018-10-09T20:08:33.562Z,53.84
2018-10-09T20:11:09.411Z,54.45
2018-10-09T20:13:45.284Z,54.20
2018-10-09T20:16:21.164Z,53.62
2018-10-09T20:18:57.128Z,53.24
2018-10-09T20:21:36.963Z,53.49
2018-10-09T20:24:14.136Z,53.59
2018-10-09T20:26:50.148Z,55.33
2018-10-09T20:29:26.131Z,58.35
2018-10-09T20:32:02.001Z,60.02
2018-10-09T20:34:37.893Z,60.41
2018-10-09T20:37:13.843Z,60.38
2018-10-09T20:39:49.795Z,59.79
2018-10-09T20:42:25.783Z,59.00
2018-10-09T20:45:01.683Z,59.13
2018-10-09T20:47:43.381Z,59.31
2018-10-09T20:50:19.256Z,59.01
2018-10-09T20:52:55.238Z,58.66
2018-10-09T20:55:31.145Z,59.67
2018-10-09T20:58:07.151Z,58.00
2018-10-09T21:00:42.154Z,59.37
2018-10-09T21:03:16.972Z,59.65
2018-10-09T21:05:51.917Z,58.25
2018-10-09T21:08:26.832Z,59.36
2018-10-09T21:11:01.786Z,61.43
2018-10-09T21:13:36.730Z,63.97
2018-10-09T21:16:11.640Z,60.95
2018-10-09T21:18:46.466Z,60.69
2018-10-09T21:21:21.288Z,61.21
2018-10-09T21:23:56.232Z,62.93
2018-10-09T21:26:31.070Z,64.18
2018-10-09T21:29:05.931Z,64.69
2018-10-09T21:31:40.636Z,65.83
2018-10-09T21:34:15.434Z,66.19
2018-10-09T21:36:50.365Z,64.97
2018-10-09T21:39:25.325Z,64.27
2018-10-09T21:42:00.100Z,63.52
2018-10-09T21:44:34.994Z,64.97
2018-10-09T21:47:09.871Z,62.71
2018-10-09T21:49:44.793Z,61.84
2018-10-09T21:52:19.848Z,62.25
2018-10-09T21:54:54.842Z,63.08
2018-10-09T21:57:30.342Z,64.58
2018-10-09T22:00:05.237Z,66.94
2018-10-09T22:02:41.393Z,66.34
2018-10-09T22:05:16.253Z,66.14
2018-10-09T22:07:51.452Z,65.55
2018-10-09T22:10:26.233Z,66.78
2018-10-09T22:13:01.137Z,66.51
2018-10-09T22:15:35.944Z,64.67
2018-10-09T22:18:10.805Z,65.17
2018-10-09T22:20:45.744Z,63.78
2018-10-09T22:23:20.805Z,64.17
2018-10-09T22:25:55.748Z,64.54
2018-10-09T22:28:30.943Z,64.28
2018-10-09T22:31:05.913Z,64.35
2018-10-09T22:33:40.923Z,64.44
2018-10-09T22:36:15.670Z,64.71
2018-10-09T22:38:50.575Z,67.09
2018-10-09T22:41:25.493Z,68.09
2018-10-09T22:44:00.383Z,70.61
2018-10-09T22:46:35.307Z,71.65
2018-10-09T22:49:10.259Z,73.86
2018-10-09T22:51:45.197Z,75.00
2018-10-09T22:54:20.085Z,73.00
2018-10-09T22:56:55.005Z,73.18
2018-10-09T22:59:29.827Z,70.04
2018-10-09T23:02:04.551Z,68.68
2018-10-09T23:04:39.388Z,68.43
2018-10-09T23:07:14.318Z,68.83
2018-10-09T23:09:49.101Z,68.64
2018-10-09T23:12:24.007Z,70.42
2018-10-09T23:14:58.925Z,68.37
2018-10-09T23:17:33.835Z,68.17
2018-10-09T23:20:08.824Z,67.49
2018-10-09T23:22:43.735Z,68.33
2018-10-09T23:25:18.617Z,67.17
2018-10-09T23:27:53.599Z,67.16
2018-10-09T23:30:28.592Z,67.21
2018-10-09T23:33:03.555Z,69.41
2018-10-09T23:35:38.545Z,69.54
2018-10-09T23:38:13.479Z,68.37
2018-10-09T23:40:48.420Z,69.08
2018-10-09T23:43:23.273Z,71.48
2018-10-09T23:45:58.056Z,71.29
2018-10-09T23:48:32.961Z,71.66
2018-10-09T23:51:07.986Z,73.83
2018-10-09T23:53:42.921Z,73.57
2018-10-09T23:56:18.119Z,71.61
2018-10-09T23:58:53.040Z,70.95
